Time,TemperatureF,DewpointF,PressureIn,WindDirection,WindDirectionDegrees,WindSpeedMPH,WindSpeedGustMPH,Humidity,HourlyPrecipIn,Conditions,Clouds,dailyrainin,SoftwareType,DateUTC
2013-03-06 00:02:00,31.7,26.8,29.64,West,270,0.4,1.1,82,0.00,,,0.00,WUHU216HW,2013-03-06 08:02:00,
2013-03-06 00:07:00,31.7,26.8,29.64,WSW,248,2.2,2.2,82,0.00,,,0.00,WUHU216HW,2013-03-06 08:07:00,
2013-03-06 00:12:00,31.3,26.8,29.64,North,0,1.6,2.2,83,0.00,,,0.00,WUHU216HW,2013-03-06 08:12:00,
2013-03-06 00:17:00,30.8,26.8,29.64,WNW,293,1.6,1.6,85,0.00,,,0.00,WUHU216HW,2013-03-06 08:17:00,
2013-03-06 00:22:00,30.6,26.6,29.63,WSW,248,1.1,1.6,85,0.00,,,0.00,WUHU216HW,2013-03-06 08:22:00,
2013-03-06 00:27:00,30.6,26.4,29.63,North,0,0.4,1.3,84,0.00,,,0.00,WUHU216HW,2013-03-06 08:27:00,
2013-03-06 00:32:00,30.6,26.4,29.63,SSW,203,0.0,1.1,84,0.00,,,0.00,WUHU216HW,2013-03-06 08:32:00,
2013-03-06 00:37:00,30.8,26.6,29.63,SW,225,0.0,0.4,84,0.00,,,0.00,WUHU216HW,2013-03-06 08:37:00,
2013-03-06 00:42:00,30.8,26.3,29.63,SW,225,0.0,0.0,83,0.00,,,0.00,WUHU216HW,2013-03-06 08:42:00,
2013-03-06 00:47:00,30.8,26.3,29.62,NW,315,0.0,0.4,83,0.00,,,0.00,WUHU216HW,2013-03-06 08:47:00,
2013-03-06 00:53:00,30.6,26.4,29.62,NNW,338,0.2,1.1,84,0.00,,,0.00,WUHU216HW,2013-03-06 08:53:00,
2013-03-06 00:58:00,30.6,26.4,29.62,NNW,338,0.0,1.1,84,0.00,,,0.00,WUHU216HW,2013-03-06 08:58:00,
2013-03-06 01:03:00,30.6,26.1,29.61,WNW,293,0.0,0.0,83,0.00,,,0.00,WUHU216HW,2013-03-06 09:03:00,
2013-03-06 01:08:00,30.6,26.1,29.62,NW,315,0.0,0.0,83,0.00,,,0.00,WUHU216HW,2013-03-06 09:08:00,
2013-03-06 01:13:00,30.6,26.1,29.61,NW,315,0.0,0.0,83,0.00,,,0.00,WUHU216HW,2013-03-06 09:13:00,
2013-03-06 01:18:00,30.8,26.3,29.61,West,270,0.0,0.0,83,0.00,,,0.00,WUHU216HW,2013-03-06 09:18:00,
2013-03-06 01:23:00,30.8,26.3,29.61,West,270,0.0,0.2,83,0.00,,,0.00,WUHU216HW,2013-03-06 09:23:00,
2013-03-06 01:28:00,30.8,26.3,29.61,South,180,0.0,0.9,83,0.00,,,0.00,WUHU216HW,2013-03-06 09:28:00,
2013-03-06 01:33:00,30.8,26.3,29.60,South,180,0.7,1.1,83,0.00,,,0.00,WUHU216HW,2013-03-06 09:33:00,
2013-03-06 01:38:00,30.8,26.3,29.60,SSE,158,0.2,1.1,83,0.00,,,0.00,WUHU216HW,2013-03-06 09:38:00,
2013-03-06 01:43:00,31.0,26.5,29.60,South,180,0.0,0.4,83,0.00,,,0.00,WUHU216HW,2013-03-06 09:43:00,
2013-03-06 01:48:00,30.8,26.3,29.60,South,180,0.0,0.4,83,0.00,,,0.00,WUHU216HW,2013-03-06 09:48:00,
2013-03-06 01:53:00,30.8,26.3,29.59,South,180,0.0,0.4,83,0.00,,,0.00,WUHU216HW,2013-03-06 09:53:00,
2013-03-06 01:58:00,30.6,26.1,29.59,South,180,0.0,0.2,83,0.00,,,0.00,WUHU216HW,2013-03-06 09:58:00,
2013-03-06 02:03:00,30.6,26.1,29.59,South,180,0.4,0.4,83,0.00,,,0.00,WUHU216HW,2013-03-06 10:03:00,
2013-03-06 02:09:00,30.6,26.1,29.58,South,180,0.0,0.4,83,0.00,,,0.00,WUHU216HW,2013-03-06 10:09:00,
2013-03-06 02:14:00,30.6,26.1,29.58,South,180,0.0,0.0,83,0.00,,,0.00,WUHU216HW,2013-03-06 10:14:00,
2013-03-06 02:19:00,30.6,26.1,29.58,South,180,0.0,0.0,83,0.00,,,0.00,WUHU216HW,2013-03-06 10:19:00,
2013-03-06 02:24:00,30.6,26.4,29.58,South,180,0.0,0.0,84,0.00,,,0.00,WUHU216HW,2013-03-06 10:24:00,
2013-03-06 02:29:00,30.6,26.4,29.58,South,180,0.0,0.0,84,0.00,,,0.00,WUHU216HW,2013-03-06 10:29:00,
2013-03-06 02:34:00,30.6,26.4,29.58,South,180,0.0,0.0,84,0.00,,,0.00,WUHU216HW,2013-03-06 10:34:00,
2013-03-06 02:39:00,30.6,26.4,29.57,South,180,0.0,0.0,84,0.00,,,0.00,WUHU216HW,2013-03-06 10:39:00,
2013-03-06 02:44:00,30.6,26.4,29.57,South,180,0.7,0.7,84,0.00,,,0.00,WUHU216HW,2013-03-06 10:44:00,
2013-03-06 02:49:00,30.8,26.6,29.57,South,180,0.2,0.7,84,0.00,,,0.00,WUHU216HW,2013-03-06 10:49:00,
2013-03-06 02:54:00,30.8,26.6,29.57,South,180,0.4,0.4,84,0.00,,,0.00,WUHU216HW,2013-03-06 10:54:00,
2013-03-06 02:59:00,30.8,26.6,29.56,South,180,0.2,0.4,84,0.00,,,0.00,WUHU216HW,2013-03-06 10:59:00,
2013-03-06 03:04:00,30.6,26.4,29.56,South,180,0.2,0.4,84,0.00,,,0.00,WUHU216HW,2013-03-06 11:04:00,
2013-03-06 03:09:00,30.6,26.4,29.56,South,180,0.0,0.2,84,0.00,,,0.00,WUHU216HW,2013-03-06 11:09:00,
2013-03-06 03:14:00,30.4,26.2,29.56,South,180,0.0,0.2,84,0.00,,,0.00,WUHU216HW,2013-03-06 11:14:00,
2013-03-06 03:19:00,30.4,26.2,29.55,South,180,0.2,0.2,84,0.00,,,0.00,WUHU216HW,2013-03-06 11:19:00,
2013-03-06 03:24:00,30.6,26.4,29.55,South,180,0.2,0.4,84,0.00,,,0.00,WUHU216HW,2013-03-06 11:24:00,
2013-03-06 03:29:00,30.6,26.4,29.54,South,180,0.4,1.1,84,0.00,,,0.00,WUHU216HW,2013-03-06 11:29:00,
2013-03-06 03:34:00,30.6,26.6,29.54,South,180,0.4,1.1,85,0.00,,,0.00,WUHU216HW,2013-03-06 11:34:00,
2013-03-06 03:39:00,30.8,26.8,29.54,South,180,0.9,1.6,85,0.00,,,0.00,WUHU216HW,2013-03-06 11:39:00,
2013-03-06 03:44:00,30.8,26.8,29.54,South,180,0.7,1.6,85,0.00,,,0.00,WUHU216HW,2013-03-06 11:44:00,
2013-03-06 03:49:00,30.6,26.6,29.55,South,180,0.4,0.7,85,0.00,,,0.00,WUHU216HW,2013-03-06 11:49:00,
2013-03-06 03:54:00,30.6,26.4,29.55,South,180,0.0,0.4,84,0.00,,,0.00,WUHU216HW,2013-03-06 11:54:00,
2013-03-06 03:59:00,30.4,26.5,29.54,South,180,0.0,0.4,85,0.00,,,0.00,WUHU216HW,2013-03-06 11:59:00,
2013-03-06 04:04:00,30.4,26.5,29.54,South,180,0.2,0.2,85,0.00,,,0.00,WUHU216HW,2013-03-06 12:04:00,
2013-03-06 04:09:00,30.4,26.5,29.54,South,180,0.7,0.9,85,0.00,,,0.00,WUHU216HW,2013-03-06 12:09:00,
2013-03-06 04:14:00,30.1,26.1,29.54,South,180,0.4,0.9,85,0.00,,,0.00,WUHU216HW,2013-03-06 12:14:00,
2013-03-06 04:19:00,30.1,26.1,29.53,South,180,0.2,1.1,85,0.00,,,0.00,WUHU216HW,2013-03-06 12:19:00,
2013-03-06 04:24:00,30.1,26.4,29.53,South,180,0.4,1.1,86,0.00,,,0.00,WUHU216HW,2013-03-06 12:24:00,
2013-03-06 04:29:00,29.9,25.9,29.53,South,180,0.0,0.4,85,0.00,,,0.00,WUHU216HW,2013-03-06 12:29:00,
2013-03-06 04:34:00,30.1,26.1,29.54,South,180,0.0,0.4,85,0.00,,,0.00,WUHU216HW,2013-03-06 12:34:00,
2013-03-06 04:39:00,30.2,26.3,29.54,South,180,0.0,0.0,85,0.00,,,0.00,WUHU216HW,2013-03-06 12:39:00,
2013-03-06 04:44:00,30.2,26.3,29.54,South,180,0.0,0.2,85,0.00,,,0.00,WUHU216HW,2013-03-06 12:44:00,
2013-03-06 04:49:00,30.4,26.5,29.54,South,180,0.4,0.4,85,0.00,,,0.00,WUHU216HW,2013-03-06 12:49:00,
2013-03-06 04:54:00,30.6,26.6,29.54,South,180,0.0,0.4,85,0.00,,,0.00,WUHU216HW,2013-03-06 12:54:00,
2013-03-06 05:00:00,30.6,26.6,29.53,South,180,0.0,0.2,85,0.00,,,0.00,WUHU216HW,2013-03-06 13:00:00,
2013-03-06 05:05:00,30.6,26.6,29.53,South,180,0.0,0.0,85,0.00,,,0.00,WUHU216HW,2013-03-06 13:05:00,
2013-03-06 05:10:00,30.8,26.8,29.53,South,180,0.0,0.0,85,0.00,,,0.00,WUHU216HW,2013-03-06 13:10:00,
2013-03-06 05:15:00,30.8,26.8,29.52,South,180,0.0,0.0,85,0.00,,,0.00,WUHU216HW,2013-03-06 13:15:00,
2013-03-06 05:20:00,31.0,27.0,29.52,South,180,0.0,0.0,85,0.00,,,0.00,WUHU216HW,2013-03-06 13:20:00,
2013-03-06 05:25:00,31.0,27.0,29.52,South,180,0.0,0.0,85,0.00,,,0.00,WUHU216HW,2013-03-06 13:25:00,
2013-03-06 05:30:00,30.8,26.8,29.52,South,180,0.0,0.0,85,0.00,,,0.00,WUHU216HW,2013-03-06 13:30:00,
2013-03-06 05:35:00,30.6,26.6,29.52,South,180,0.0,0.0,85,0.00,,,0.00,WUHU216HW,2013-03-06 13:35:00,
2013-03-06 05:40:00,30.6,26.6,29.52,South,180,0.0,0.0,85,0.00,,,0.00,WUHU216HW,2013-03-06 13:40:00,
2013-03-06 05:45:00,30.6,26.6,29.52,South,180,0.2,0.7,85,0.00,,,0.00,WUHU216HW,2013-03-06 13:45:00,
2013-03-06 05:50:00,30.6,26.6,29.52,South,180,0.0,0.7,85,0.00,,,0.00,WUHU216HW,2013-03-06 13:50:00,
2013-03-06 05:55:00,30.8,26.8,29.52,South,180,0.0,0.2,85,0.00,,,0.00,WUHU216HW,2013-03-06 13:55:00,
2013-03-06 06:00:00,30.8,26.8,29.52,South,180,0.0,0.4,85,0.00,,,0.00,WUHU216HW,2013-03-06 14:00:00,
2013-03-06 06:05:00,30.6,26.6,29.52,South,180,0.0,0.4,85,0.00,,,0.00,WUHU216HW,2013-03-06 14:05:00,
2013-03-06 06:10:00,30.6,26.6,29.52,South,180,0.0,0.0,85,0.00,,,0.00,WUHU216HW,2013-03-06 14:10:00,
2013-03-06 06:15:00,30.4,26.7,29.52,South,180,0.0,0.0,86,0.00,,,0.00,WUHU216HW,2013-03-06 14:15:00,
2013-03-06 06:20:00,30.2,26.6,29.53,South,180,0.0,0.0,86,0.00,,,0.00,WUHU216HW,2013-03-06 14:20:00,
2013-03-06 06:25:00,30.2,26.6,29.53,South,180,0.4,0.9,86,0.00,,,0.00,WUHU216HW,2013-03-06 14:25:00,
2013-03-06 06:30:00,30.4,27.0,29.52,South,180,0.4,2.2,87,0.00,,,0.00,WUHU216HW,2013-03-06 14:30:00,
2013-03-06 06:35:00,30.6,26.9,29.52,South,180,0.0,2.2,86,0.00,,,0.00,WUHU216HW,2013-03-06 14:35:00,
2013-03-06 06:40:00,30.6,26.9,29.52,South,180,1.3,1.3,86,0.00,,,0.00,WUHU216HW,2013-03-06 14:40:00,
2013-03-06 06:45:00,30.8,27.1,29.52,South,180,0.2,1.3,86,0.00,,,0.00,WUHU216HW,2013-03-06 14:45:00,
2013-03-06 06:50:00,31.0,27.3,29.52,South,180,1.8,1.8,86,0.00,,,0.00,WUHU216HW,2013-03-06 14:50:00,
2013-03-06 06:55:00,31.1,27.5,29.51,South,180,0.7,1.8,86,0.00,,,0.00,WUHU216HW,2013-03-06 14:55:00,
2013-03-06 07:00:00,31.1,27.5,29.51,South,180,1.8,1.8,86,0.00,,,0.00,WUHU216HW,2013-03-06 15:00:00,
2013-03-06 07:05:00,31.1,27.5,29.51,South,180,1.1,1.8,86,0.00,,,0.00,WUHU216HW,2013-03-06 15:05:00,
2013-03-06 07:10:00,31.3,27.6,29.51,South,180,2.5,2.7,86,0.00,,,0.00,WUHU216HW,2013-03-06 15:10:00,
2013-03-06 07:15:00,31.3,27.6,29.51,South,180,1.1,2.7,86,0.00,,,0.00,WUHU216HW,2013-03-06 15:15:00,
2013-03-06 07:20:00,31.7,28.0,29.51,South,180,1.8,4.0,86,0.00,,,0.00,WUHU216HW,2013-03-06 15:20:00,
2013-03-06 07:26:00,31.9,28.2,29.51,South,180,2.5,4.0,86,0.00,,,0.00,WUHU216HW,2013-03-06 15:26:00,
2013-03-06 07:31:00,32.0,28.4,29.51,South,180,3.1,3.1,86,0.00,,,0.00,WUHU216HW,2013-03-06 15:31:00,
2013-03-06 07:36:00,32.4,28.7,29.51,South,180,4.0,4.0,86,0.00,,,0.00,WUHU216HW,2013-03-06 15:36:00,
2013-03-06 07:41:00,32.4,28.7,29.51,SW,225,2.5,5.6,86,0.00,,,0.00,WUHU216HW,2013-03-06 15:41:00,
2013-03-06 07:46:00,32.6,28.5,29.51,South,180,3.1,5.6,85,0.00,,,0.00,WUHU216HW,2013-03-06 15:46:00,
2013-03-06 07:51:00,32.8,28.7,29.51,SW,225,2.0,4.9,85,0.00,,,0.00,WUHU216HW,2013-03-06 15:51:00,
2013-03-06 07:56:00,32.8,28.7,29.52,SW,225,2.7,5.6,85,0.00,,,0.00,WUHU216HW,2013-03-06 15:56:00,
2013-03-06 08:01:00,33.1,29.1,29.52,WSW,248,1.8,6.3,85,0.00,,,0.00,WUHU216HW,2013-03-06 16:01:00,
2013-03-06 08:06:00,33.7,29.3,29.53,SW,225,2.2,6.3,84,0.00,,,0.00,WUHU216HW,2013-03-06 16:06:00,
2013-03-06 08:11:00,34.2,30.1,29.53,South,180,2.5,4.7,85,0.00,,,0.00,WUHU216HW,2013-03-06 16:11:00,
2013-03-06 08:16:00,34.2,29.8,29.54,NNW,338,4.5,8.5,84,0.00,,,0.00,WUHU216HW,2013-03-06 16:16:00,
2013-03-06 08:21:00,34.4,30.0,29.54,SE,135,1.6,8.5,84,0.00,,,0.00,WUHU216HW,2013-03-06 16:21:00,
2013-03-06 08:26:00,34.4,30.0,29.54,SSW,203,3.8,6.7,84,0.00,,,0.00,WUHU216HW,2013-03-06 16:26:00,
2013-03-06 08:31:00,34.4,30.0,29.54,South,180,4.5,4.7,84,0.00,,,0.00,WUHU216HW,2013-03-06 16:31:00,
2013-03-06 08:36:00,34.4,29.7,29.54,SSW,203,5.1,6.7,83,0.00,,,0.00,WUHU216HW,2013-03-06 16:36:00,
2013-03-06 08:41:00,34.4,29.7,29.55,SW,225,2.7,8.1,83,0.00,,,0.00,WUHU216HW,2013-03-06 16:41:00,
2013-03-06 08:46:00,34.4,29.7,29.55,SSW,203,4.3,8.1,83,0.00,,,0.00,WUHU216HW,2013-03-06 16:46:00,
2013-03-06 08:51:00,34.2,29.5,29.55,SW,225,2.5,6.7,83,0.00,,,0.00,WUHU216HW,2013-03-06 16:51:00,
2013-03-06 08:56:00,34.2,29.5,29.55,SW,225,3.4,6.9,83,0.00,,,0.00,WUHU216HW,2013-03-06 16:56:00,
2013-03-06 09:01:00,34.0,29.6,29.56,SSW,203,3.4,10.3,84,0.00,,,0.00,WUHU216HW,2013-03-06 17:01:00,
2013-03-06 09:07:00,34.0,29.6,29.56,West,270,4.9,10.5,84,0.00,,,0.00,WUHU216HW,2013-03-06 17:07:00,
2013-03-06 09:12:00,33.8,29.2,29.57,WSW,248,4.7,10.5,83,0.01,,,0.01,WUHU216HW,2013-03-06 17:12:00,
2013-03-06 09:17:00,33.8,29.2,29.57,SSW,203,4.3,10.5,83,0.01,,,0.01,WUHU216HW,2013-03-06 17:17:00,
2013-03-06 09:22:00,33.8,29.2,29.57,SSW,203,2.9,11.2,83,0.01,,,0.01,WUHU216HW,2013-03-06 17:22:00,
2013-03-06 09:27:00,33.8,29.2,29.57,SSW,203,7.4,11.2,83,0.01,,,0.01,WUHU216HW,2013-03-06 17:27:00,
2013-03-06 09:32:00,33.7,29.0,29.57,SSW,203,6.3,10.7,83,0.01,,,0.01,WUHU216HW,2013-03-06 17:32:00,
2013-03-06 09:37:00,33.7,29.0,29.57,SW,225,13.2,13.2,83,0.01,,,0.01,WUHU216HW,2013-03-06 17:37:00,
2013-03-06 09:42:00,33.7,29.0,29.58,SW,225,8.9,13.2,83,0.01,,,0.01,WUHU216HW,2013-03-06 17:42:00,
2013-03-06 09:47:00,33.7,29.0,29.58,WSW,248,10.5,11.9,83,0.01,,,0.01,WUHU216HW,2013-03-06 17:47:00,
2013-03-06 09:52:00,33.7,29.0,29.58,SW,225,4.3,11.9,83,0.02,,,0.02,WUHU216HW,2013-03-06 17:52:00,
2013-03-06 09:57:00,33.8,29.2,29.58,SSW,203,4.3,8.7,83,0.02,,,0.02,WUHU216HW,2013-03-06 17:57:00,
2013-03-06 10:02:00,34.0,29.6,29.58,West,270,5.6,9.4,84,0.02,,,0.02,WUHU216HW,2013-03-06 18:02:00,
2013-03-06 10:07:00,34.2,29.8,29.58,WSW,248,2.7,9.4,84,0.01,,,0.02,WUHU216HW,2013-03-06 18:07:00,
2013-03-06 10:12:00,34.4,30.0,29.58,South,180,3.1,8.1,84,0.01,,,0.02,WUHU216HW,2013-03-06 18:12:00,
2013-03-06 10:17:00,34.7,30.3,29.58,WSW,248,2.2,7.2,84,0.01,,,0.02,WUHU216HW,2013-03-06 18:17:00,
2013-03-06 10:22:00,34.9,30.3,29.58,WSW,248,2.7,10.1,83,0.02,,,0.03,WUHU216HW,2013-03-06 18:22:00,
2013-03-06 10:27:00,35.1,30.4,29.58,SSW,203,3.4,10.1,83,0.02,,,0.03,WUHU216HW,2013-03-06 18:27:00,
2013-03-06 10:32:00,35.1,30.4,29.58,WNW,293,6.5,9.8,83,0.02,,,0.03,WUHU216HW,2013-03-06 18:32:00,
2013-03-06 10:37:00,35.3,30.6,29.59,SW,225,6.5,9.8,83,0.02,,,0.03,WUHU216HW,2013-03-06 18:37:00,
2013-03-06 10:42:00,35.8,31.2,29.59,SSW,203,11.4,11.4,83,0.03,,,0.04,WUHU216HW,2013-03-06 18:42:00,
2013-03-06 10:47:00,35.6,30.6,29.60,SW,225,5.4,11.4,82,0.03,,,0.04,WUHU216HW,2013-03-06 18:47:00,
2013-03-06 10:52:00,35.5,30.4,29.60,ESE,113,2.5,9.8,82,0.02,,,0.04,WUHU216HW,2013-03-06 18:52:00,
2013-03-06 10:57:00,35.3,30.6,29.60,SSW,203,7.4,9.8,83,0.02,,,0.04,WUHU216HW,2013-03-06 18:57:00,
2013-03-06 11:02:00,34.9,30.3,29.60,SW,225,4.9,9.2,83,0.02,,,0.04,WUHU216HW,2013-03-06 19:02:00,
2013-03-06 11:07:00,34.9,30.5,29.60,NNE,23,2.9,6.9,84,0.03,,,0.05,WUHU216HW,2013-03-06 19:07:00,
2013-03-06 11:12:00,35.3,30.9,29.60,SW,225,8.5,9.2,84,0.03,,,0.05,WUHU216HW,2013-03-06 19:12:00,
2013-03-06 11:17:00,35.3,30.9,29.60,SSW,203,4.3,9.2,84,0.03,,,0.05,WUHU216HW,2013-03-06 19:17:00,
2013-03-06 11:22:00,35.3,30.9,29.60,SW,225,6.3,6.3,84,0.02,,,0.05,WUHU216HW,2013-03-06 19:22:00,
2013-03-06 11:27:00,35.3,30.9,29.60,SSW,203,1.8,7.8,84,0.02,,,0.05,WUHU216HW,2013-03-06 19:27:00,
2013-03-06 11:32:00,35.6,31.2,29.60,SW,225,5.1,7.8,84,0.02,,,0.05,WUHU216HW,2013-03-06 19:32:00,
2013-03-06 11:37:00,36.0,31.3,29.60,SSW,203,4.7,5.1,83,0.02,,,0.05,WUHU216HW,2013-03-06 19:37:00,
2013-03-06 11:42:00,36.4,31.7,29.61,SW,225,4.5,4.9,83,0.01,,,0.05,WUHU216HW,2013-03-06 19:42:00,
2013-03-06 11:47:00,36.5,31.9,29.61,SW,225,3.6,7.6,83,0.01,,,0.05,WUHU216HW,2013-03-06 19:47:00,
2013-03-06 11:52:00,36.9,31.9,29.61,SW,225,5.4,8.9,82,0.02,,,0.06,WUHU216HW,2013-03-06 19:52:00,
2013-03-06 11:58:00,37.4,31.5,29.62,West,270,5.8,8.9,79,0.02,,,0.06,WUHU216HW,2013-03-06 19:58:00,
2013-03-06 12:03:00,38.0,31.8,29.62,SSW,203,7.8,8.9,78,0.02,,,0.06,WUHU216HW,2013-03-06 20:03:00,
2013-03-06 12:08:00,38.5,31.2,29.63,West,270,10.5,10.5,75,0.01,,,0.06,WUHU216HW,2013-03-06 20:08:00,
2013-03-06 12:13:00,38.9,29.9,29.63,SW,225,14.8,15.2,70,0.01,,,0.06,WUHU216HW,2013-03-06 20:13:00,
2013-03-06 12:18:00,39.2,29.1,29.63,WSW,248,11.0,18.6,67,0.01,,,0.06,WUHU216HW,2013-03-06 20:18:00,
2013-03-06 12:23:00,38.9,28.8,29.64,WNW,293,9.2,18.6,67,0.01,,,0.06,WUHU216HW,2013-03-06 20:23:00,
2013-03-06 12:28:00,38.9,27.6,29.64,West,270,12.8,14.3,64,0.01,,,0.06,WUHU216HW,2013-03-06 20:28:00,
2013-03-06 12:33:00,38.7,27.1,29.64,NW,315,7.2,14.3,63,0.01,,,0.06,WUHU216HW,2013-03-06 20:33:00,
2013-03-06 12:38:00,38.5,27.4,29.64,West,270,10.5,12.1,64,0.01,,,0.06,WUHU216HW,2013-03-06 20:38:00,
2013-03-06 12:43:00,38.7,27.9,29.65,West,270,4.7,15.0,65,0.01,,,0.06,WUHU216HW,2013-03-06 20:43:00,
2013-03-06 12:48:00,39.1,27.5,29.65,WNW,293,9.6,17.9,63,0.00,,,0.06,WUHU216HW,2013-03-06 20:48:00,
2013-03-06 12:53:00,39.2,28.0,29.66,West,270,6.7,17.9,64,0.00,,,0.06,WUHU216HW,2013-03-06 20:53:00,
2013-03-06 12:58:00,39.6,28.7,29.66,NW,315,9.2,12.1,65,0.00,,,0.06,WUHU216HW,2013-03-06 20:58:00,
2013-03-06 13:03:00,39.6,28.0,29.66,WSW,248,6.0,13.6,63,0.00,,,0.06,WUHU216HW,2013-03-06 21:03:00,
2013-03-06 13:08:00,39.4,27.8,29.67,West,270,10.7,14.3,63,0.00,,,0.06,WUHU216HW,2013-03-06 21:08:00,
2013-03-06 13:13:00,39.2,27.6,29.67,SSW,203,10.5,14.3,63,0.00,,,0.06,WUHU216HW,2013-03-06 21:13:00,
2013-03-06 13:18:00,38.9,27.3,29.67,WSW,248,9.2,10.5,63,0.00,,,0.06,WUHU216HW,2013-03-06 21:18:00,
2013-03-06 13:23:00,38.5,26.6,29.67,West,270,8.3,18.3,62,0.00,,,0.06,WUHU216HW,2013-03-06 21:23:00,
2013-03-06 13:28:00,38.2,25.8,29.67,SSW,203,5.8,18.3,61,0.00,,,0.06,WUHU216HW,2013-03-06 21:28:00,
2013-03-06 13:33:00,38.2,26.7,29.68,West,270,5.4,13.2,63,0.00,,,0.06,WUHU216HW,2013-03-06 21:33:00,
2013-03-06 13:38:00,38.2,26.7,29.68,SW,225,5.4,8.9,63,0.00,,,0.06,WUHU216HW,2013-03-06 21:38:00,
2013-03-06 13:43:00,38.2,26.7,29.68,WSW,248,6.3,8.1,63,0.00,,,0.06,WUHU216HW,2013-03-06 21:43:00,
2013-03-06 13:48:00,38.2,27.0,29.69,SW,225,5.4,8.1,64,0.00,,,0.06,WUHU216HW,2013-03-06 21:48:00,
2013-03-06 13:53:00,38.2,26.7,29.69,West,270,6.0,6.9,63,0.00,,,0.06,WUHU216HW,2013-03-06 21:53:00,
2013-03-06 13:58:00,37.8,26.3,29.69,SW,225,7.2,12.8,63,0.00,,,0.06,WUHU216HW,2013-03-06 21:58:00,
2013-03-06 14:04:00,37.8,26.3,29.69,WNW,293,6.3,13.0,63,0.00,,,0.06,WUHU216HW,2013-03-06 22:04:00,
2013-03-06 14:09:00,37.4,25.6,29.70,WSW,248,8.3,13.0,62,0.00,,,0.06,WUHU216HW,2013-03-06 22:09:00,
2013-03-06 14:14:00,37.3,25.8,29.70,WSW,248,7.6,11.2,63,0.00,,,0.06,WUHU216HW,2013-03-06 22:14:00,
2013-03-06 14:19:00,37.3,25.5,29.70,SW,225,10.5,10.5,62,0.00,,,0.06,WUHU216HW,2013-03-06 22:19:00,
2013-03-06 14:24:00,37.4,25.6,29.70,WSW,248,4.3,12.5,62,0.00,,,0.06,WUHU216HW,2013-03-06 22:24:00,
2013-03-06 14:29:00,37.4,25.6,29.70,WNW,293,7.2,12.5,62,0.00,,,0.06,WUHU216HW,2013-03-06 22:29:00,
2013-03-06 14:34:00,37.4,24.8,29.70,West,270,11.4,11.4,60,0.00,,,0.06,WUHU216HW,2013-03-06 22:34:00,
2013-03-06 14:39:00,37.4,25.2,29.71,SSW,203,4.9,11.4,61,0.00,,,0.06,WUHU216HW,2013-03-06 22:39:00,
2013-03-06 14:44:00,37.6,25.7,29.71,SW,225,2.0,5.4,62,0.00,,,0.06,WUHU216HW,2013-03-06 22:44:00,
2013-03-06 14:49:00,37.6,26.1,29.71,SSW,203,3.4,9.2,63,0.00,,,0.06,WUHU216HW,2013-03-06 22:49:00,
2013-03-06 14:54:00,37.4,25.6,29.71,West,270,3.8,11.6,62,0.00,,,0.06,WUHU216HW,2013-03-06 22:54:00,
2013-03-06 14:59:00,37.4,25.6,29.72,SSW,203,9.2,11.6,62,0.00,,,0.06,WUHU216HW,2013-03-06 22:59:00,
2013-03-06 15:04:00,37.4,25.6,29.72,SW,225,4.0,9.2,62,0.00,,,0.06,WUHU216HW,2013-03-06 23:04:00,
2013-03-06 15:09:00,37.8,26.3,29.72,SW,225,5.4,9.2,63,0.00,,,0.06,WUHU216HW,2013-03-06 23:09:00,
2013-03-06 15:14:00,37.8,26.3,29.73,SW,225,8.1,10.5,63,0.00,,,0.06,WUHU216HW,2013-03-06 23:14:00,
2013-03-06 15:19:00,37.8,26.3,29.73,SSW,203,8.5,10.5,63,0.00,,,0.06,WUHU216HW,2013-03-06 23:19:00,
2013-03-06 15:24:00,38.0,26.5,29.73,WSW,248,7.4,8.5,63,0.00,,,0.06,WUHU216HW,2013-03-06 23:24:00,
2013-03-06 15:29:00,37.8,26.3,29.73,SSW,203,4.7,8.3,63,0.00,,,0.06,WUHU216HW,2013-03-06 23:29:00,
2013-03-06 15:34:00,37.8,26.3,29.73,SW,225,4.9,9.4,63,0.00,,,0.06,WUHU216HW,2013-03-06 23:34:00,
2013-03-06 15:39:00,37.8,26.3,29.74,WSW,248,6.3,10.1,63,0.00,,,0.06,WUHU216HW,2013-03-06 23:39:00,
2013-03-06 15:44:00,37.6,26.1,29.73,South,180,3.4,10.1,63,0.00,,,0.06,WUHU216HW,2013-03-06 23:44:00,
2013-03-06 15:49:00,37.6,25.7,29.74,SSW,203,3.8,10.3,62,0.00,,,0.06,WUHU216HW,2013-03-06 23:49:00,
2013-03-06 15:54:00,37.6,25.7,29.74,WSW,248,6.9,10.3,62,0.00,,,0.06,WUHU216HW,2013-03-06 23:54:00,
2013-03-06 15:59:00,37.4,25.6,29.74,WSW,248,4.7,15.0,62,0.00,,,0.06,WUHU216HW,2013-03-06 23:59:00,
2013-03-06 16:05:00,37.4,25.2,29.74,SW,225,7.6,15.0,61,0.00,,,0.06,WUHU216HW,2013-03-07 00:05:00,
2013-03-06 16:10:00,37.3,24.7,29.74,SSW,203,3.4,12.1,60,0.00,,,0.06,WUHU216HW,2013-03-07 00:10:00,
2013-03-06 16:15:00,37.1,24.5,29.75,WSW,248,6.0,14.5,60,0.00,,,0.06,WUHU216HW,2013-03-07 00:15:00,
2013-03-06 16:20:00,37.1,24.5,29.75,WSW,248,9.8,14.5,60,0.00,,,0.06,WUHU216HW,2013-03-07 00:20:00,
2013-03-06 16:25:00,37.1,24.5,29.76,SW,225,13.4,14.3,60,0.00,,,0.06,WUHU216HW,2013-03-07 00:25:00,
2013-03-06 16:30:00,36.7,24.2,29.76,SW,225,8.5,13.4,60,0.00,,,0.06,WUHU216HW,2013-03-07 00:30:00,
2013-03-06 16:35:00,36.5,24.4,29.76,WSW,248,5.4,12.1,61,0.00,,,0.06,WUHU216HW,2013-03-07 00:35:00,
2013-03-06 16:40:00,36.5,24.4,29.76,SSW,203,8.3,8.3,61,0.00,,,0.06,WUHU216HW,2013-03-07 00:40:00,
2013-03-06 16:45:00,36.5,24.8,29.76,SW,225,5.6,9.2,62,0.00,,,0.06,WUHU216HW,2013-03-07 00:45:00,
2013-03-06 16:50:00,36.5,24.8,29.77,WSW,248,2.9,9.2,62,0.00,,,0.06,WUHU216HW,2013-03-07 00:50:00,
2013-03-06 16:55:00,36.4,24.6,29.77,West,270,3.8,6.7,62,0.00,,,0.06,WUHU216HW,2013-03-07 00:55:00,
2013-03-06 17:00:00,36.4,24.9,29.77,West,270,3.1,7.4,63,0.00,,,0.06,WUHU216HW,2013-03-07 01:00:00,
2013-03-06 17:05:00,36.2,24.9,29.77,SW,225,4.0,7.4,63,0.00,,,0.06,WUHU216HW,2013-03-07 01:05:00,
2013-03-06 17:10:00,36.0,24.7,29.77,SSW,203,4.3,8.1,63,0.00,,,0.06,WUHU216HW,2013-03-07 01:10:00,
2013-03-06 17:15:00,36.0,25.0,29.77,West,270,3.8,8.5,64,0.00,,,0.06,WUHU216HW,2013-03-07 01:15:00,
2013-03-06 17:20:00,35.8,24.9,29.77,SSW,203,5.4,8.5,64,0.00,,,0.06,WUHU216HW,2013-03-07 01:20:00,
2013-03-06 17:25:00,35.6,25.0,29.77,SW,225,6.3,6.7,65,0.00,,,0.06,WUHU216HW,2013-03-07 01:25:00,
2013-03-06 17:30:00,35.5,24.8,29.78,West,270,5.1,12.1,65,0.00,,,0.06,WUHU216HW,2013-03-07 01:30:00,
2013-03-06 17:35:00,35.3,24.7,29.78,WSW,248,2.7,12.1,65,0.00,,,0.06,WUHU216HW,2013-03-07 01:35:00,
2013-03-06 17:40:00,34.9,24.3,29.78,WSW,248,3.1,7.6,65,0.00,,,0.06,WUHU216HW,2013-03-07 01:40:00,
2013-03-06 17:45:00,34.9,24.3,29.79,SSW,203,4.0,7.6,65,0.00,,,0.06,WUHU216HW,2013-03-07 01:45:00,
2013-03-06 17:50:00,34.7,24.5,29.79,SSW,203,3.4,7.4,66,0.00,,,0.06,WUHU216HW,2013-03-07 01:50:00,
2013-03-06 17:55:00,34.6,24.3,29.79,SSW,203,3.4,6.7,66,0.00,,,0.06,WUHU216HW,2013-03-07 01:55:00,
2013-03-06 18:00:00,34.4,24.1,29.79,SSW,203,8.7,8.7,66,0.00,,,0.06,WUHU216HW,2013-03-07 02:00:00,
2013-03-06 18:05:00,34.2,23.9,29.80,SW,225,6.0,9.4,66,0.00,,,0.06,WUHU216HW,2013-03-07 02:05:00,
2013-03-06 18:10:00,34.0,24.1,29.79,SSW,203,6.3,9.4,67,0.00,,,0.06,WUHU216HW,2013-03-07 02:10:00,
2013-03-06 18:15:00,33.8,24.7,29.80,SW,225,10.3,10.3,69,0.00,,,0.06,WUHU216HW,2013-03-07 02:15:00,
2013-03-06 18:20:00,33.7,24.5,29.80,SW,225,6.0,10.3,69,0.00,,,0.06,WUHU216HW,2013-03-07 02:20:00,
2013-03-06 18:25:00,33.3,24.6,29.80,SW,225,4.0,7.2,70,0.00,,,0.06,WUHU216HW,2013-03-07 02:25:00,
2013-03-06 18:30:00,33.1,24.4,29.81,West,270,5.8,6.3,70,0.00,,,0.06,WUHU216HW,2013-03-07 02:30:00,
2013-03-06 18:35:00,32.9,24.2,29.81,SW,225,3.1,7.4,70,0.00,,,0.06,WUHU216HW,2013-03-07 02:35:00,
2013-03-06 18:40:00,32.8,24.0,29.81,SW,225,1.6,8.5,70,0.00,,,0.06,WUHU216HW,2013-03-07 02:40:00,
2013-03-06 18:46:00,32.8,24.7,29.81,SW,225,3.6,8.5,72,0.00,,,0.06,WUHU216HW,2013-03-07 02:46:00,
2013-03-06 18:51:00,32.8,24.7,29.82,SW,225,2.9,7.4,72,0.00,,,0.06,WUHU216HW,2013-03-07 02:51:00,
2013-03-06 18:56:00,32.8,25.0,29.82,SSW,203,9.2,9.2,73,0.00,,,0.06,WUHU216HW,2013-03-07 02:56:00,
2013-03-06 19:01:00,32.6,25.2,29.82,SW,225,6.3,9.2,74,0.00,,,0.06,WUHU216HW,2013-03-07 03:01:00,
2013-03-06 19:06:00,32.2,24.8,29.82,SW,225,4.0,6.3,74,0.00,,,0.06,WUHU216HW,2013-03-07 03:06:00,
2013-03-06 19:11:00,32.0,25.0,29.82,WSW,248,3.6,6.5,75,0.00,,,0.06,WUHU216HW,2013-03-07 03:11:00,
2013-03-06 19:16:00,31.9,24.8,29.82,South,180,3.6,4.5,75,0.00,,,0.06,WUHU216HW,2013-03-07 03:16:00,
2013-03-06 19:21:00,31.7,24.7,29.83,WSW,248,4.0,7.8,75,0.00,,,0.06,WUHU216HW,2013-03-07 03:21:00,
2013-03-06 19:26:00,31.5,24.9,29.83,SW,225,3.4,7.8,76,0.00,,,0.06,WUHU216HW,2013-03-07 03:26:00,
2013-03-06 19:31:00,31.3,24.3,29.83,WSW,248,2.9,4.0,75,0.00,,,0.06,WUHU216HW,2013-03-07 03:31:00,
2013-03-06 19:36:00,31.3,24.7,29.83,SW,225,5.4,5.4,76,0.00,,,0.06,WUHU216HW,2013-03-07 03:36:00,
2013-03-06 19:41:00,31.3,24.3,29.83,SW,225,5.4,5.4,75,0.00,,,0.06,WUHU216HW,2013-03-07 03:41:00,
2013-03-06 19:46:00,31.1,24.1,29.83,SW,225,2.5,5.4,75,0.00,,,0.06,WUHU216HW,2013-03-07 03:46:00,
2013-03-06 19:51:00,31.1,24.1,29.83,WSW,248,2.0,4.5,75,0.00,,,0.06,WUHU216HW,2013-03-07 03:51:00,
2013-03-06 19:56:00,31.0,23.9,29.83,WSW,248,0.4,4.5,75,0.00,,,0.06,WUHU216HW,2013-03-07 03:56:00,
2013-03-06 20:01:00,31.0,23.9,29.83,West,270,1.1,4.7,75,0.00,,,0.06,WUHU216HW,2013-03-07 04:01:00,
2013-03-06 20:06:00,30.8,23.8,29.84,West,270,3.4,4.7,75,0.00,,,0.06,WUHU216HW,2013-03-07 04:06:00,
2013-03-06 20:11:00,30.8,23.8,29.84,West,270,2.0,4.3,75,0.00,,,0.06,WUHU216HW,2013-03-07 04:11:00,
2013-03-06 20:16:00,30.8,23.8,29.85,ENE,68,0.9,2.0,75,0.00,,,0.06,WUHU216HW,2013-03-07 04:16:00,
2013-03-06 20:21:00,30.8,23.8,29.84,ESE,113,0.4,2.5,75,0.00,,,0.06,WUHU216HW,2013-03-07 04:21:00,
2013-03-06 20:26:00,30.8,23.8,29.84,North,0,1.8,2.5,75,0.00,,,0.06,WUHU216HW,2013-03-07 04:26:00,
2013-03-06 20:32:00,30.6,24.0,29.85,SW,225,1.8,1.8,76,0.00,,,0.06,WUHU216HW,2013-03-07 04:32:00,
2013-03-06 20:37:00,30.6,24.0,29.85,SSW,203,1.1,1.8,76,0.00,,,0.06,WUHU216HW,2013-03-07 04:37:00,
2013-03-06 20:42:00,30.6,23.6,29.85,SSW,203,0.0,1.8,75,0.00,,,0.06,WUHU216HW,2013-03-07 04:42:00,
2013-03-06 20:47:00,30.4,23.4,29.85,SW,225,0.7,1.8,75,0.00,,,0.06,WUHU216HW,2013-03-07 04:47:00,
2013-03-06 20:52:00,30.2,23.6,29.85,WNW,293,6.9,6.9,76,0.00,,,0.06,WUHU216HW,2013-03-07 04:52:00,
2013-03-06 20:57:00,30.2,23.2,29.86,SSW,203,3.6,6.9,75,0.00,,,0.06,WUHU216HW,2013-03-07 04:57:00,
2013-03-06 21:00:00,30.1,23.4,29.86,SSW,203,1.1,6.9,76,0.00,,,0.06,WUHU216HW,2013-03-07 05:00:00,
2013-03-06 21:05:00,30.1,23.0,29.86,WSW,248,3.8,3.8,75,0.00,,,0.06,WUHU216HW,2013-03-07 05:05:00,
2013-03-06 21:10:00,29.9,22.9,29.86,SSW,203,2.9,10.1,75,0.00,,,0.06,WUHU216HW,2013-03-07 05:10:00,
2013-03-06 21:15:00,29.9,22.9,29.86,WSW,248,5.8,10.1,75,0.00,,,0.06,WUHU216HW,2013-03-07 05:15:00,
2013-03-06 21:20:00,29.9,22.9,29.86,SW,225,3.4,6.7,75,0.00,,,0.06,WUHU216HW,2013-03-07 05:20:00,
2013-03-06 21:25:00,29.9,22.9,29.86,SW,225,3.1,6.7,75,0.00,,,0.06,WUHU216HW,2013-03-07 05:25:00,
2013-03-06 21:30:00,29.9,22.9,29.86,SW,225,4.0,6.9,75,0.00,,,0.06,WUHU216HW,2013-03-07 05:30:00,
2013-03-06 21:35:00,29.9,22.9,29.86,SW,225,5.6,6.9,75,0.00,,,0.06,WUHU216HW,2013-03-07 05:35:00,
2013-03-06 21:40:00,29.9,22.9,29.86,SSW,203,2.7,6.0,75,0.00,,,0.06,WUHU216HW,2013-03-07 05:40:00,
2013-03-06 21:45:00,29.9,22.9,29.86,South,180,6.0,6.0,75,0.00,,,0.06,WUHU216HW,2013-03-07 05:45:00,
2013-03-06 21:50:00,29.9,22.9,29.86,SSW,203,0.4,6.0,75,0.00,,,0.06,WUHU216HW,2013-03-07 05:50:00,
2013-03-06 21:55:00,29.9,22.9,29.87,WNW,293,0.4,5.1,75,0.00,,,0.06,WUHU216HW,2013-03-07 05:55:00,
2013-03-06 22:00:00,29.9,22.9,29.87,SSW,203,1.1,5.4,75,0.00,,,0.06,WUHU216HW,2013-03-07 06:00:00,
2013-03-06 22:05:00,29.9,22.9,29.87,SSW,203,2.7,5.4,75,0.00,,,0.06,WUHU216HW,2013-03-07 06:05:00,
2013-03-06 22:10:00,29.7,22.7,29.87,WSW,248,2.7,4.5,75,0.00,,,0.06,WUHU216HW,2013-03-07 06:10:00,
2013-03-06 22:15:00,29.5,22.5,29.88,SSW,203,4.0,4.0,75,0.00,,,0.06,WUHU216HW,2013-03-07 06:15:00,
2013-03-06 22:20:00,29.5,22.5,29.88,WSW,248,1.3,6.3,75,0.00,,,0.06,WUHU216HW,2013-03-07 06:20:00,
2013-03-06 22:25:00,29.5,22.5,29.88,WSW,248,3.4,6.3,75,0.00,,,0.06,WUHU216HW,2013-03-07 06:25:00,
2013-03-06 22:30:00,29.5,22.5,29.88,NW,315,2.0,4.7,75,0.00,,,0.06,WUHU216HW,2013-03-07 06:30:00,
2013-03-06 22:35:00,29.7,22.7,29.88,NW,315,1.3,4.5,75,0.00,,,0.06,WUHU216HW,2013-03-07 06:35:00,
2013-03-06 22:40:00,29.7,22.7,29.89,NNW,338,1.1,2.5,75,0.00,,,0.06,WUHU216HW,2013-03-07 06:40:00,
2013-03-06 22:46:00,29.7,22.4,29.88,WSW,248,1.1,2.0,74,0.00,,,0.06,WUHU216HW,2013-03-07 06:46:00,
2013-03-06 22:51:00,29.7,22.4,29.89,WNW,293,0.0,1.8,74,0.00,,,0.06,WUHU216HW,2013-03-07 06:51:00,
2013-03-06 22:56:00,29.5,22.2,29.89,South,180,3.1,3.1,74,0.00,,,0.06,WUHU216HW,2013-03-07 06:56:00,
2013-03-06 23:01:00,29.5,22.2,29.89,NNW,338,1.6,3.1,74,0.00,,,0.06,WUHU216HW,2013-03-07 07:01:00,
2013-03-06 23:06:00,29.3,22.1,29.89,WNW,293,0.4,2.5,74,0.00,,,0.06,WUHU216HW,2013-03-07 07:06:00,
2013-03-06 23:11:00,29.3,22.1,29.89,WNW,293,1.6,3.6,74,0.00,,,0.06,WUHU216HW,2013-03-07 07:11:00,
2013-03-06 23:16:00,29.3,22.1,29.89,WSW,248,1.1,3.6,74,0.00,,,0.06,WUHU216HW,2013-03-07 07:16:00,
2013-03-06 23:21:00,29.3,22.1,29.89,NW,315,3.8,4.0,74,0.00,,,0.06,WUHU216HW,2013-03-07 07:21:00,
2013-03-06 23:26:00,29.5,22.2,29.89,West,270,2.7,4.0,74,0.00,,,0.06,WUHU216HW,2013-03-07 07:26:00,
2013-03-06 23:31:00,29.3,22.1,29.88,SW,225,4.0,4.0,74,0.00,,,0.06,WUHU216HW,2013-03-07 07:31:00,
2013-03-06 23:36:00,29.2,21.9,29.89,West,270,2.5,4.0,74,0.00,,,0.06,WUHU216HW,2013-03-07 07:36:00,
2013-03-06 23:41:00,29.2,21.9,29.89,WSW,248,2.9,5.1,74,0.00,,,0.06,WUHU216HW,2013-03-07 07:41:00,
2013-03-06 23:46:00,28.8,21.5,29.88,WSW,248,1.6,5.1,74,0.00,,,0.06,WUHU216HW,2013-03-07 07:46:00,
2013-03-06 23:51:00,28.8,21.5,29.89,SSW,203,5.4,5.8,74,0.00,,,0.06,WUHU216HW,2013-03-07 07:51:00,
2013-03-06 23:56:00,28.8,21.5,29.89,WSW,248,2.7,5.8,74,0.00,,,0.06,WUHU216HW,2013-03-07 07:56:00,